sensor_id;sensor_type;location;lat;lon;timestamp;pressure;altitude;pressure_sealevel;temperature;humidity
72486;BME280;60509;47.308;-122.428;2022-12-04T00:01:29;100903.15;;;-0.82;46.22
72486;BME280;60509;47.308;-122.428;2022-12-04T00:03:55;100903.47;;;-0.74;46.34
72486;BME280;60509;47.308;-122.428;2022-12-04T00:06:21;100900.84;;;-1.30;46.34
72486;BME280;60509;47.308;-122.428;2022-12-04T00:08:46;100897.62;;;-1.96;47.18
72486;BME280;60509;47.308;-122.428;2022-12-04T00:11:12;100900.71;;;-1.17;46.83
72486;BME280;60509;47.308;-122.428;2022-12-04T00:13:36;100901.50;;;-1.53;46.78
72486;BME280;60509;47.308;-122.428;2022-12-04T00:16:03;100900.30;;;-1.22;45.82
72486;BME280;60509;47.308;-122.428;2022-12-04T00:18:27;100904.46;;;-0.90;45.52
72486;BME280;60509;47.308;-122.428;2022-12-04T00:20:52;100907.88;;;-1.86;45.76
72486;BME280;60509;47.308;-122.428;2022-12-04T00:23:17;100908.16;;;-1.24;45.31
72486;BME280;60509;47.308;-122.428;2022-12-04T00:25:43;100910.48;;;-1.85;45.98
72486;BME280;60509;47.308;-122.428;2022-12-04T00:28:08;100914.33;;;-2.41;46.82
72486;BME280;60509;47.308;-122.428;2022-12-04T00:30:34;100919.68;;;-1.87;44.23
72486;BME280;60509;47.308;-122.428;2022-12-04T00:32:59;100919.62;;;-3.15;45.62
72486;BME280;60509;47.308;-122.428;2022-12-04T00:35:25;100922.33;;;-3.17;44.95
72486;BME280;60509;47.308;-122.428;2022-12-04T00:37:51;100924.81;;;-2.89;45.23
72486;BME280;60509;47.308;-122.428;2022-12-04T00:40:16;100920.08;;;-2.52;44.80
72486;BME280;60509;47.308;-122.428;2022-12-04T00:42:41;100918.18;;;-1.97;45.37
72486;BME280;60509;47.308;-122.428;2022-12-04T00:45:07;100916.30;;;-2.91;46.76
72486;BME280;60509;47.308;-122.428;2022-12-04T00:47:32;100911.26;;;-3.03;45.45
72486;BME280;60509;47.308;-122.428;2022-12-04T00:49:58;100911.47;;;-3.04;46.01
72486;BME280;60509;47.308;-122.428;2022-12-04T00:52:23;100913.09;;;-3.02;45.81
72486;BME280;60509;47.308;-122.428;2022-12-04T00:54:49;100912.62;;;-3.18;46.05
72486;BME280;60509;47.308;-122.428;2022-12-04T00:57:15;100912.90;;;-2.78;46.02
72486;BME280;60509;47.308;-122.428;2022-12-04T00:59:40;100912.53;;;-3.67;46.27
72486;BME280;60509;47.308;-122.428;2022-12-04T01:02:05;100915.59;;;-3.53;44.75
72486;BME280;60509;47.308;-122.428;2022-12-04T01:04:31;100916.12;;;-3.76;43.58
72486;BME280;60509;47.308;-122.428;2022-12-04T01:06:57;100918.38;;;-3.91;44.90
72486;BME280;60509;47.308;-122.428;2022-12-04T01:09:22;100924.98;;;-2.92;45.49
72486;BME280;60509;47.308;-122.428;2022-12-04T01:11:48;100929.23;;;-4.11;46.73
72486;BME280;60509;47.308;-122.428;2022-12-04T01:14:13;100929.78;;;-2.86;45.39
72486;BME280;60509;47.308;-122.428;2022-12-04T01:16:44;100926.52;;;-3.07;45.23
72486;BME280;60509;47.308;-122.428;2022-12-04T01:19:06;100931.61;;;-3.36;45.03
72486;BME280;60509;47.308;-122.428;2022-12-04T01:21:30;100929.32;;;-3.86;45.82
72486;BME280;60509;47.308;-122.428;2022-12-04T01:23:56;100929.83;;;-4.61;46.17
72486;BME280;60509;47.308;-122.428;2022-12-04T01:26:21;100932.00;;;-3.83;45.85
72486;BME280;60509;47.308;-122.428;2022-12-04T01:28:46;100932.04;;;-2.98;44.37
72486;BME280;60509;47.308;-122.428;2022-12-04T01:31:14;100931.37;;;-3.63;45.52
72486;BME280;60509;47.308;-122.428;2022-12-04T01:33:38;100931.98;;;-3.54;45.73
72486;BME280;60509;47.308;-122.428;2022-12-04T01:36:05;100932.92;;;-3.85;47.89
72486;BME280;60509;47.308;-122.428;2022-12-04T01:38:30;100934.82;;;-4.11;48.10
72486;BME280;60509;47.308;-122.428;2022-12-04T01:40:55;100927.78;;;-4.49;47.67
72486;BME280;60509;47.308;-122.428;2022-12-04T01:43:20;100930.12;;;-3.83;46.36
72486;BME280;60509;47.308;-122.428;2022-12-04T01:45:46;100929.13;;;-3.57;45.49
72486;BME280;60509;47.308;-122.428;2022-12-04T01:48:18;100928.47;;;-3.68;45.89
72486;BME280;60509;47.308;-122.428;2022-12-04T01:50:37;100929.17;;;-3.94;45.61
72486;BME280;60509;47.308;-122.428;2022-12-04T01:53:02;100924.21;;;-4.18;45.71
72486;BME280;60509;47.308;-122.428;2022-12-04T01:55:28;100924.57;;;-3.62;45.21
72486;BME280;60509;47.308;-122.428;2022-12-04T01:57:53;100931.52;;;-4.32;46.63
72486;BME280;60509;47.308;-122.428;2022-12-04T02:00:19;100928.98;;;-3.38;45.63
72486;BME280;60509;47.308;-122.428;2022-12-04T02:02:46;100935.62;;;-3.80;46.50
72486;BME280;60509;47.308;-122.428;2022-12-04T02:05:12;100926.13;;;-4.37;46.07
72486;BME280;60509;47.308;-122.428;2022-12-04T02:07:36;100931.40;;;-3.96;46.02
72486;BME280;60509;47.308;-122.428;2022-12-04T02:10:01;100936.19;;;-4.57;47.78
72486;BME280;60509;47.308;-122.428;2022-12-04T02:12:34;100941.17;;;-4.25;47.60
72486;BME280;60509;47.308;-122.428;2022-12-04T02:14:59;100934.91;;;-3.78;45.18
72486;BME280;60509;47.308;-122.428;2022-12-04T02:17:24;100934.81;;;-4.31;46.59
72486;BME280;60509;47.308;-122.428;2022-12-04T02:19:57;100932.87;;;-4.30;45.91
72486;BME280;60509;47.308;-122.428;2022-12-04T02:22:19;100934.55;;;-4.38;46.43
72486;BME280;60509;47.308;-122.428;2022-12-04T02:24:44;100934.56;;;-3.83;47.05
72486;BME280;60509;47.308;-122.428;2022-12-04T02:27:03;100934.02;;;-4.14;46.66
72486;BME280;60509;47.308;-122.428;2022-12-04T02:29:34;100941.38;;;-4.56;47.21
72486;BME280;60509;47.308;-122.428;2022-12-04T02:31:57;100938.40;;;-4.47;47.07
72486;BME280;60509;47.308;-122.428;2022-12-04T02:34:25;100936.86;;;-4.75;47.09
72486;BME280;60509;47.308;-122.428;2022-12-04T02:36:47;100939.03;;;-4.47;46.48
72486;BME280;60509;47.308;-122.428;2022-12-04T02:39:14;100938.96;;;-4.42;46.65
72486;BME280;60509;47.308;-122.428;2022-12-04T02:41:38;100944.53;;;-4.52;46.43
72486;BME280;60509;47.308;-122.428;2022-12-04T02:44:03;100946.88;;;-5.67;47.67
72486;BME280;60509;47.308;-122.428;2022-12-04T02:46:29;100945.95;;;-5.32;47.55
72486;BME280;60509;47.308;-122.428;2022-12-04T02:48:52;100945.77;;;-4.06;46.64
72486;BME280;60509;47.308;-122.428;2022-12-04T02:51:19;100948.20;;;-5.02;47.14
72486;BME280;60509;47.308;-122.428;2022-12-04T02:53:50;100944.55;;;-3.59;45.28
72486;BME280;60509;47.308;-122.428;2022-12-04T02:56:10;100951.99;;;-4.98;47.15
72486;BME280;60509;47.308;-122.428;2022-12-04T02:58:36;100948.02;;;-4.03;46.99
72486;BME280;60509;47.308;-122.428;2022-12-04T03:01:01;100946.74;;;-5.68;48.27
72486;BME280;60509;47.308;-122.428;2022-12-04T03:03:28;100944.55;;;-4.87;46.90
72486;BME280;60509;47.308;-122.428;2022-12-04T03:05:56;100941.28;;;-4.09;44.81
72486;BME280;60509;47.308;-122.428;2022-12-04T03:08:21;100951.29;;;-4.91;46.07
72486;BME280;60509;47.308;-122.428;2022-12-04T03:10:45;100949.86;;;-4.76;46.61
72486;BME280;60509;47.308;-122.428;2022-12-04T03:13:10;100953.68;;;-5.06;47.46
72486;BME280;60509;47.308;-122.428;2022-12-04T03:15:36;100952.13;;;-5.03;46.77
72486;BME280;60509;47.308;-122.428;2022-12-04T03:18:08;100954.45;;;-4.94;46.79
72486;BME280;60509;47.308;-122.428;2022-12-04T03:20:25;100952.60;;;-4.73;46.92
72486;BME280;60509;47.308;-122.428;2022-12-04T03:22:55;100951.82;;;-4.37;46.00
72486;BME280;60509;47.308;-122.428;2022-12-04T03:25:16;100949.26;;;-3.41;45.16
72486;BME280;60509;47.308;-122.428;2022-12-04T03:27:47;100955.22;;;-5.27;48.09
72486;BME280;60509;47.308;-122.428;2022-12-04T03:30:09;100961.23;;;-5.14;47.22
72486;BME280;60509;47.308;-122.428;2022-12-04T03:32:37;100955.77;;;-6.13;48.74
72486;BME280;60509;47.308;-122.428;2022-12-04T03:35:03;100950.10;;;-4.61;46.47
72486;BME280;60509;47.308;-122.428;2022-12-04T03:37:30;100941.95;;;-3.21;44.87
72486;BME280;60509;47.308;-122.428;2022-12-04T03:39:56;100950.14;;;-4.16;46.70
72486;BME280;60509;47.308;-122.428;2022-12-04T03:42:19;100950.74;;;-4.88;47.36
72486;BME280;60509;47.308;-122.428;2022-12-04T03:44:45;100952.71;;;-6.43;48.35
72486;BME280;60509;47.308;-122.428;2022-12-04T03:47:11;100951.97;;;-4.67;46.13
72486;BME280;60509;47.308;-122.428;2022-12-04T03:49:39;100952.41;;;-4.24;45.47
72486;BME280;60509;47.308;-122.428;2022-12-04T03:52:02;100954.43;;;-5.18;46.49
72486;BME280;60509;47.308;-122.428;2022-12-04T03:54:29;100952.40;;;-5.25;47.29
72486;BME280;60509;47.308;-122.428;2022-12-04T03:56:52;100952.95;;;-5.01;45.86
72486;BME280;60509;47.308;-122.428;2022-12-04T03:59:21;100949.78;;;-5.47;47.45
72486;BME280;60509;47.308;-122.428;2022-12-04T04:01:44;100946.03;;;-4.44;46.06
72486;BME280;60509;47.308;-122.428;2022-12-04T04:04:11;100944.37;;;-4.82;46.94
72486;BME280;60509;47.308;-122.428;2022-12-04T04:06:37;100941.06;;;-6.69;48.66
72486;BME280;60509;47.308;-122.428;2022-12-04T04:09:02;100941.69;;;-5.11;47.28
72486;BME280;60509;47.308;-122.428;2022-12-04T04:11:28;100938.68;;;-5.62;47.27
72486;BME280;60509;47.308;-122.428;2022-12-04T04:13:54;100935.48;;;-5.47;46.45
72486;BME280;60509;47.308;-122.428;2022-12-04T04:16:18;100940.83;;;-6.65;45.76
72486;BME280;60509;47.308;-122.428;2022-12-04T04:18:42;100938.88;;;-5.32;44.33
72486;BME280;60509;47.308;-122.428;2022-12-04T04:21:07;100939.80;;;-5.03;44.87
72486;BME280;60509;47.308;-122.428;2022-12-04T04:23:36;100944.13;;;-5.18;45.68
72486;BME280;60509;47.308;-122.428;2022-12-04T04:25:59;100947.19;;;-4.38;44.90
72486;BME280;60509;47.308;-122.428;2022-12-04T04:28:30;100941.80;;;-5.62;45.74
72486;BME280;60509;47.308;-122.428;2022-12-04T04:30:49;100937.38;;;-4.56;44.24
72486;BME280;60509;47.308;-122.428;2022-12-04T04:33:16;100941.06;;;-5.68;46.46
72486;BME280;60509;47.308;-122.428;2022-12-04T04:35:45;100935.50;;;-4.67;45.22
72486;BME280;60509;47.308;-122.428;2022-12-04T04:38:12;100940.84;;;-4.09;42.87
72486;BME280;60509;47.308;-122.428;2022-12-04T04:40:36;100937.07;;;-5.23;45.11
72486;BME280;60509;47.308;-122.428;2022-12-04T04:43:02;100938.58;;;-5.34;43.70
72486;BME280;60509;47.308;-122.428;2022-12-04T04:45:27;100938.24;;;-5.04;43.31
72486;BME280;60509;47.308;-122.428;2022-12-04T04:47:53;100932.13;;;-5.94;44.65
72486;BME280;60509;47.308;-122.428;2022-12-04T04:50:16;100932.96;;;-5.61;42.71
72486;BME280;60509;47.308;-122.428;2022-12-04T04:52:43;100926.21;;;-5.13;41.55
72486;BME280;60509;47.308;-122.428;2022-12-04T04:55:07;100924.74;;;-5.55;40.65
72486;BME280;60509;47.308;-122.428;2022-12-04T04:57:34;100922.98;;;-4.10;39.44
72486;BME280;60509;47.308;-122.428;2022-12-04T04:59:57;100925.26;;;-5.31;41.85
72486;BME280;60509;47.308;-122.428;2022-12-04T05:02:24;100925.30;;;-5.10;40.66
72486;BME280;60509;47.308;-122.428;2022-12-04T05:04:49;100922.27;;;-6.05;42.03
72486;BME280;60509;47.308;-122.428;2022-12-04T05:07:14;100923.55;;;-5.74;42.09
72486;BME280;60509;47.308;-122.428;2022-12-04T05:09:40;100924.70;;;-5.97;43.90
72486;BME280;60509;47.308;-122.428;2022-12-04T05:12:10;100916.00;;;-5.24;43.31
72486;BME280;60509;47.308;-122.428;2022-12-04T05:14:32;100921.12;;;-5.12;42.31
72486;BME280;60509;47.308;-122.428;2022-12-04T05:16:57;100919.47;;;-4.39;41.16
72486;BME280;60509;47.308;-122.428;2022-12-04T05:19:23;100927.68;;;-5.75;43.60
72486;BME280;60509;47.308;-122.428;2022-12-04T05:21:48;100919.04;;;-4.91;43.16
72486;BME280;60509;47.308;-122.428;2022-12-04T05:24:14;100913.62;;;-7.17;46.52
72486;BME280;60509;47.308;-122.428;2022-12-04T05:26:40;100910.08;;;-5.80;44.29
72486;BME280;60509;47.308;-122.428;2022-12-04T05:29:05;100909.16;;;-5.44;44.26
72486;BME280;60509;47.308;-122.428;2022-12-04T05:31:31;100908.73;;;-5.50;45.12
72486;BME280;60509;47.308;-122.428;2022-12-04T05:33:57;100910.84;;;-5.35;43.76
72486;BME280;60509;47.308;-122.428;2022-12-04T05:36:22;100908.97;;;-5.99;44.46
72486;BME280;60509;47.308;-122.428;2022-12-04T05:38:48;100906.50;;;-5.75;44.07
72486;BME280;60509;47.308;-122.428;2022-12-04T05:41:14;100900.80;;;-4.64;42.22
72486;BME280;60509;47.308;-122.428;2022-12-04T05:43:39;100910.12;;;-4.68;43.03
72486;BME280;60509;47.308;-122.428;2022-12-04T05:46:07;100916.55;;;-5.02;44.05
72486;BME280;60509;47.308;-122.428;2022-12-04T05:48:31;100917.11;;;-5.22;44.90
72486;BME280;60509;47.308;-122.428;2022-12-04T05:51:05;100918.24;;;-3.82;42.92
72486;BME280;60509;47.308;-122.428;2022-12-04T05:53:22;100923.84;;;-5.11;44.30
72486;BME280;60509;47.308;-122.428;2022-12-04T05:55:54;100920.16;;;-5.88;45.24
72486;BME280;60509;47.308;-122.428;2022-12-04T05:58:13;100912.66;;;-5.19;43.39
72486;BME280;60509;47.308;-122.428;2022-12-04T06:00:39;100921.13;;;-4.44;42.86
72486;BME280;60509;47.308;-122.428;2022-12-04T06:03:05;100925.12;;;-4.96;44.30
72486;BME280;60509;47.308;-122.428;2022-12-04T06:05:32;100924.37;;;-5.68;44.88
72486;BME280;60509;47.308;-122.428;2022-12-04T06:07:56;100925.23;;;-5.68;44.77
72486;BME280;60509;47.308;-122.428;2022-12-04T06:10:22;100925.08;;;-4.95;43.35
72486;BME280;60509;47.308;-122.428;2022-12-04T06:12:47;100927.57;;;-5.38;45.04
72486;BME280;60509;47.308;-122.428;2022-12-04T06:15:13;100927.05;;;-5.73;45.87
72486;BME280;60509;47.308;-122.428;2022-12-04T06:17:40;100924.82;;;-5.76;45.68
72486;BME280;60509;47.308;-122.428;2022-12-04T06:20:07;100925.78;;;-4.66;44.26
72486;BME280;60509;47.308;-122.428;2022-12-04T06:22:30;100934.47;;;-6.09;44.87
72486;BME280;60509;47.308;-122.428;2022-12-04T06:24:56;100926.30;;;-5.73;44.02
72486;BME280;60509;47.308;-122.428;2022-12-04T06:27:21;100924.75;;;-4.47;43.26
72486;BME280;60509;47.308;-122.428;2022-12-04T06:29:47;100927.70;;;-5.96;44.62
72486;BME280;60509;47.308;-122.428;2022-12-04T06:32:12;100926.61;;;-4.01;42.47
72486;BME280;60509;47.308;-122.428;2022-12-04T06:34:38;100923.20;;;-5.18;43.79
72486;BME280;60509;47.308;-122.428;2022-12-04T06:37:04;100921.41;;;-5.66;44.73
72486;BME280;60509;47.308;-122.428;2022-12-04T06:39:29;100914.21;;;-5.97;44.38
72486;BME280;60509;47.308;-122.428;2022-12-04T06:41:55;100908.12;;;-5.74;44.62
72486;BME280;60509;47.308;-122.428;2022-12-04T06:44:21;100906.29;;;-5.28;44.48
72486;BME280;60509;47.308;-122.428;2022-12-04T06:46:48;100902.97;;;-5.52;44.04
72486;BME280;60509;47.308;-122.428;2022-12-04T06:49:12;100903.16;;;-5.74;43.40
72486;BME280;60509;47.308;-122.428;2022-12-04T06:51:43;100899.64;;;-5.10;42.30
72486;BME280;60509;47.308;-122.428;2022-12-04T06:54:03;100903.28;;;-5.46;43.51
72486;BME280;60509;47.308;-122.428;2022-12-04T06:56:31;100900.60;;;-4.66;43.18
72486;BME280;60509;47.308;-122.428;2022-12-04T06:58:56;100895.37;;;-5.19;43.17
72486;BME280;60509;47.308;-122.428;2022-12-04T07:01:22;100891.88;;;-5.12;42.12
72486;BME280;60509;47.308;-122.428;2022-12-04T07:03:46;100885.61;;;-5.56;42.24
72486;BME280;60509;47.308;-122.428;2022-12-04T07:06:15;100886.88;;;-5.80;42.59
72486;BME280;60509;47.308;-122.428;2022-12-04T07:08:37;100881.90;;;-5.70;42.47
72486;BME280;60509;47.308;-122.428;2022-12-04T07:11:03;100876.65;;;-5.82;41.87
72486;BME280;60509;47.308;-122.428;2022-12-04T07:13:28;100872.66;;;-5.40;41.91
72486;BME280;60509;47.308;-122.428;2022-12-04T07:15:54;100876.42;;;-5.77;42.44
72486;BME280;60509;47.308;-122.428;2022-12-04T07:18:20;100876.57;;;-6.09;43.82
72486;BME280;60509;47.308;-122.428;2022-12-04T07:20:45;100872.50;;;-4.31;41.52
72486;BME280;60509;47.308;-122.428;2022-12-04T07:23:11;100872.28;;;-4.89;41.44
72486;BME280;60509;47.308;-122.428;2022-12-04T07:25:39;100874.58;;;-6.87;43.05
72486;BME280;60509;47.308;-122.428;2022-12-04T07:28:02;100870.41;;;-4.99;40.90
72486;BME280;60509;47.308;-122.428;2022-12-04T07:30:28;100879.83;;;-4.97;41.35
72486;BME280;60509;47.308;-122.428;2022-12-04T07:32:54;100881.47;;;-4.64;41.32
72486;BME280;60509;47.308;-122.428;2022-12-04T07:35:19;100875.85;;;-4.47;40.59
72486;BME280;60509;47.308;-122.428;2022-12-04T07:37:50;100870.13;;;-5.72;42.04
72486;BME280;60509;47.308;-122.428;2022-12-04T07:40:11;100868.91;;;-5.20;42.14
72486;BME280;60509;47.308;-122.428;2022-12-04T07:42:36;100867.43;;;-5.94;44.49
72486;BME280;60509;47.308;-122.428;2022-12-04T07:45:02;100868.36;;;-5.43;44.05
72486;BME280;60509;47.308;-122.428;2022-12-04T07:47:27;100868.76;;;-6.49;45.82
72486;BME280;60509;47.308;-122.428;2022-12-04T07:49:53;100859.88;;;-6.02;44.85
72486;BME280;60509;47.308;-122.428;2022-12-04T07:52:19;100854.99;;;-5.47;43.95
72486;BME280;60509;47.308;-122.428;2022-12-04T07:54:44;100852.88;;;-5.06;43.17
72486;BME280;60509;47.308;-122.428;2022-12-04T07:57:10;100850.75;;;-5.51;44.18
72486;BME280;60509;47.308;-122.428;2022-12-04T07:59:36;100841.55;;;-4.99;43.98
72486;BME280;60509;47.308;-122.428;2022-12-04T08:02:03;100833.52;;;-5.31;45.41
72486;BME280;60509;47.308;-122.428;2022-12-04T08:04:27;100829.29;;;-5.65;45.26
72486;BME280;60509;47.308;-122.428;2022-12-04T08:06:53;100823.78;;;-5.48;43.82
72486;BME280;60509;47.308;-122.428;2022-12-04T08:09:18;100819.28;;;-6.08;44.48
72486;BME280;60509;47.308;-122.428;2022-12-04T08:11:44;100806.55;;;-4.55;42.39
72486;BME280;60509;47.308;-122.428;2022-12-04T08:14:11;100801.26;;;-4.46;40.66
72486;BME280;60509;47.308;-122.428;2022-12-04T08:16:36;100807.84;;;-5.71;41.47
72486;BME280;60509;47.308;-122.428;2022-12-04T08:19:02;100808.03;;;-6.34;42.66
72486;BME280;60509;47.308;-122.428;2022-12-04T08:21:28;100802.90;;;-5.44;43.09
72486;BME280;60509;47.308;-122.428;2022-12-04T08:23:54;100788.72;;;-5.27;42.04
72486;BME280;60509;47.308;-122.428;2022-12-04T08:26:20;100792.76;;;-5.31;43.66
72486;BME280;60509;47.308;-122.428;2022-12-04T08:28:44;100793.84;;;-4.97;43.10
72486;BME280;60509;47.308;-122.428;2022-12-04T08:31:12;100789.83;;;-4.62;41.91
72486;BME280;60509;47.308;-122.428;2022-12-04T08:33:35;100787.73;;;-5.62;43.70
72486;BME280;60509;47.308;-122.428;2022-12-04T08:36:04;100781.39;;;-5.79;43.79
72486;BME280;60509;47.308;-122.428;2022-12-04T08:38:26;100784.31;;;-5.64;42.99
72486;BME280;60509;47.308;-122.428;2022-12-04T08:40:52;100774.30;;;-4.53;40.85
72486;BME280;60509;47.308;-122.428;2022-12-04T08:43:18;100767.97;;;-5.93;43.11
72486;BME280;60509;47.308;-122.428;2022-12-04T08:45:43;100763.12;;;-6.00;43.41
72486;BME280;60509;47.308;-122.428;2022-12-04T08:48:09;100766.32;;;-5.80;42.44
72486;BME280;60509;47.308;-122.428;2022-12-04T08:50:35;100757.82;;;-4.98;41.43
72486;BME280;60509;47.308;-122.428;2022-12-04T08:53:00;100745.92;;;-4.58;41.26
72486;BME280;60509;47.308;-122.428;2022-12-04T08:55:26;100750.21;;;-5.38;42.72
72486;BME280;60509;47.308;-122.428;2022-12-04T08:57:53;100749.42;;;-5.90;41.83
72486;BME280;60509;47.308;-122.428;2022-12-04T09:00:22;100744.07;;;-5.45;41.94
72486;BME280;60509;47.308;-122.428;2022-12-04T09:02:43;100737.85;;;-5.15;42.10
72486;BME280;60509;47.308;-122.428;2022-12-04T09:05:09;100736.94;;;-4.87;41.41
72486;BME280;60509;47.308;-122.428;2022-12-04T09:07:35;100742.23;;;-5.49;42.59
72486;BME280;60509;47.308;-122.428;2022-12-04T09:10:00;100733.95;;;-5.69;41.93
72486;BME280;60509;47.308;-122.428;2022-12-04T09:12:26;100731.00;;;-4.64;41.07
72486;BME280;60509;47.308;-122.428;2022-12-04T09:14:52;100726.66;;;-5.41;41.64
72486;BME280;60509;47.308;-122.428;2022-12-04T09:17:17;100722.94;;;-6.25;41.61
72486;BME280;60509;47.308;-122.428;2022-12-04T09:19:43;100718.47;;;-5.34;39.89
72486;BME280;60509;47.308;-122.428;2022-12-04T09:22:09;100706.29;;;-5.84;40.42
72486;BME280;60509;47.308;-122.428;2022-12-04T09:24:34;100700.18;;;-6.77;41.25
72486;BME280;60509;47.308;-122.428;2022-12-04T09:27:00;100699.61;;;-5.90;40.56
72486;BME280;60509;47.308;-122.428;2022-12-04T09:29:26;100695.94;;;-5.78;40.56
72486;BME280;60509;47.308;-122.428;2022-12-04T09:31:52;100691.13;;;-5.86;40.64
72486;BME280;60509;47.308;-122.428;2022-12-04T09:34:17;100690.22;;;-3.75;38.68
72486;BME280;60509;47.308;-122.428;2022-12-04T09:36:43;100691.08;;;-4.85;40.18
72486;BME280;60509;47.308;-122.428;2022-12-04T09:39:10;100698.92;;;-5.39;41.18
72486;BME280;60509;47.308;-122.428;2022-12-04T09:42:44;100695.43;;;-5.69;41.83
72486;BME280;60509;47.308;-122.428;2022-12-04T09:44:03;100685.24;;;-5.51;41.73
72486;BME280;60509;47.308;-122.428;2022-12-04T09:46:31;100685.42;;;-4.63;41.20
72486;BME280;60509;47.308;-122.428;2022-12-04T09:48:54;100673.49;;;-5.03;42.15
72486;BME280;60509;47.308;-122.428;2022-12-04T09:51:20;100665.24;;;-5.36;42.90
72486;BME280;60509;47.308;-122.428;2022-12-04T09:53:46;100665.10;;;-5.15;41.84
72486;BME280;60509;47.308;-122.428;2022-12-04T09:56:12;100662.78;;;-4.26;41.95
72486;BME280;60509;47.308;-122.428;2022-12-04T09:58:39;100658.94;;;-4.89;40.84
72486;BME280;60509;47.308;-122.428;2022-12-04T10:01:08;100660.62;;;-5.52;42.51
72486;BME280;60509;47.308;-122.428;2022-12-04T10:03:28;100658.80;;;-5.81;43.85
72486;BME280;60509;47.308;-122.428;2022-12-04T10:05:57;100661.95;;;-5.04;43.35
72486;BME280;60509;47.308;-122.428;2022-12-04T10:08:21;100664.99;;;-4.73;43.03
72486;BME280;60509;47.308;-122.428;2022-12-04T10:10:48;100665.65;;;-5.30;42.96
72486;BME280;60509;47.308;-122.428;2022-12-04T10:13:28;100658.40;;;-4.99;42.97
72486;BME280;60509;47.308;-122.428;2022-12-04T10:15:39;100660.74;;;-5.32;43.55
72486;BME280;60509;47.308;-122.428;2022-12-04T10:18:17;100659.82;;;-5.80;43.32
72486;BME280;60509;47.308;-122.428;2022-12-04T10:20:44;100662.71;;;-5.76;42.89
72486;BME280;60509;47.308;-122.428;2022-12-04T10:22:59;100657.20;;;-6.42;43.45
72486;BME280;60509;47.308;-122.428;2022-12-04T10:25:20;100651.71;;;-4.82;41.69
72486;BME280;60509;47.308;-122.428;2022-12-04T10:27:47;100647.01;;;-4.86;41.36
72486;BME280;60509;47.308;-122.428;2022-12-04T10:30:18;100640.92;;;-5.42;41.92
72486;BME280;60509;47.308;-122.428;2022-12-04T10:32:34;100644.61;;;-4.09;41.20
72486;BME280;60509;47.308;-122.428;2022-12-04T10:35:17;100638.45;;;-3.47;41.03
72486;BME280;60509;47.308;-122.428;2022-12-04T10:37:27;100633.54;;;-4.74;42.52
72486;BME280;60509;47.308;-122.428;2022-12-04T10:39:55;100631.92;;;-4.78;43.16
72486;BME280;60509;47.308;-122.428;2022-12-04T10:42:23;100630.90;;;-5.63;44.84
72486;BME280;60509;47.308;-122.428;2022-12-04T10:44:43;100627.46;;;-4.48;44.75
72486;BME280;60509;47.308;-122.428;2022-12-04T10:47:10;100618.99;;;-5.19;44.85
72486;BME280;60509;47.308;-122.428;2022-12-04T10:49:35;100610.06;;;-5.98;46.36
72486;BME280;60509;47.308;-122.428;2022-12-04T10:52:00;100595.04;;;-4.09;43.89
72486;BME280;60509;47.308;-122.428;2022-12-04T10:54:31;100581.45;;;-3.63;43.72
72486;BME280;60509;47.308;-122.428;2022-12-04T10:56:53;100571.46;;;-4.59;45.03
72486;BME280;60509;47.308;-122.428;2022-12-04T10:59:17;100567.74;;;-6.22;47.28
72486;BME280;60509;47.308;-122.428;2022-12-04T11:01:43;100565.96;;;-5.77;46.37
72486;BME280;60509;47.308;-122.428;2022-12-04T11:04:19;100557.38;;;-4.73;45.02
72486;BME280;60509;47.308;-122.428;2022-12-04T11:06:35;100562.59;;;-5.86;46.62
72486;BME280;60509;47.308;-122.428;2022-12-04T11:09:02;100556.48;;;-6.26;46.12
72486;BME280;60509;47.308;-122.428;2022-12-04T11:11:28;100545.93;;;-4.92;43.03
72486;BME280;60509;47.308;-122.428;2022-12-04T11:14:03;100550.82;;;-4.85;43.56
72486;BME280;60509;47.308;-122.428;2022-12-04T11:16:32;100552.27;;;-4.87;44.06
72486;BME280;60509;47.308;-122.428;2022-12-04T11:18:48;100546.10;;;-5.55;44.96
72486;BME280;60509;47.308;-122.428;2022-12-04T11:21:14;100537.12;;;-5.87;43.79
72486;BME280;60509;47.308;-122.428;2022-12-04T11:23:42;100525.15;;;-4.49;42.61
72486;BME280;60509;47.308;-122.428;2022-12-04T11:26:01;100518.65;;;-5.20;44.46
72486;BME280;60509;47.308;-122.428;2022-12-04T11:28:28;100518.00;;;-4.62;44.27
72486;BME280;60509;47.308;-122.428;2022-12-04T11:30:54;100517.70;;;-4.96;43.78
72486;BME280;60509;47.308;-122.428;2022-12-04T11:33:22;100515.24;;;-4.37;42.39
72486;BME280;60509;47.308;-122.428;2022-12-04T11:35:51;100509.42;;;-5.27;43.01
72486;BME280;60509;47.308;-122.428;2022-12-04T11:38:14;100509.18;;;-4.79;43.98
72486;BME280;60509;47.308;-122.428;2022-12-04T11:40:35;100508.22;;;-5.30;44.58
72486;BME280;60509;47.308;-122.428;2022-12-04T11:43:03;100496.70;;;-5.82;44.99
72486;BME280;60509;47.308;-122.428;2022-12-04T11:45:26;100495.16;;;-5.42;44.19
72486;BME280;60509;47.308;-122.428;2022-12-04T11:47:55;100500.70;;;-5.82;45.45
72486;BME280;60509;47.308;-122.428;2022-12-04T11:50:30;100494.55;;;-5.45;44.42
72486;BME280;60509;47.308;-122.428;2022-12-04T11:52:58;100491.56;;;-4.57;41.40
72486;BME280;60509;47.308;-122.428;2022-12-04T11:55:16;100496.18;;;-5.12;43.48
72486;BME280;60509;47.308;-122.428;2022-12-04T11:57:41;100498.42;;;-5.03;43.63
72486;BME280;60509;47.308;-122.428;2022-12-04T12:00:08;100499.09;;;-5.47;44.95
72486;BME280;60509;47.308;-122.428;2022-12-04T12:02:40;100500.56;;;-4.94;43.86
72486;BME280;60509;47.308;-122.428;2022-12-04T12:05:07;100501.78;;;-5.02;43.37
72486;BME280;60509;47.308;-122.428;2022-12-04T12:07:27;100502.86;;;-5.47;45.13
72486;BME280;60509;47.308;-122.428;2022-12-04T12:09:46;100501.44;;;-5.28;45.54
72486;BME280;60509;47.308;-122.428;2022-12-04T12:12:12;100497.17;;;-4.51;44.23